sensor_id;sensor_type;location;lat;lon;timestamp;P1;durP1;ratioP1;P2;durP2;ratioP2
60076;SDS011;45950;45.208;20.374;2023-02-21T00:02:18;24.45;;;14.32;;
60076;SDS011;45950;45.208;20.374;2023-02-21T00:05:03;23.48;;;14.98;;
60076;SDS011;45950;45.208;20.374;2023-02-21T00:07:47;21.65;;;13.30;;
60076;SDS011;45950;45.208;20.374;2023-02-21T00:10:31;17.98;;;12.40;;
60076;SDS011;45950;45.208;20.374;2023-02-21T00:13:15;17.23;;;11.60;;
60076;SDS011;45950;45.208;20.374;2023-02-21T00:15:59;18.50;;;13.55;;
60076;SDS011;45950;45.208;20.374;2023-02-21T00:18:43;16.83;;;11.48;;
60076;SDS011;45950;45.208;20.374;2023-02-21T00:21:29;16.98;;;11.02;;
60076;SDS011;45950;45.208;20.374;2023-02-21T00:24:13;18.85;;;11.43;;
60076;SDS011;45950;45.208;20.374;2023-02-21T00:26:57;17.90;;;9.55;;
60076;SDS011;45950;45.208;20.374;2023-02-21T00:29:41;18.33;;;12.13;;
60076;SDS011;45950;45.208;20.374;2023-02-21T00:32:25;43.53;;;28.02;;
60076;SDS011;45950;45.208;20.374;2023-02-21T00:35:09;35.97;;;23.33;;
60076;SDS011;45950;45.208;20.374;2023-02-21T00:37:55;40.60;;;26.02;;
60076;SDS011;45950;45.208;20.374;2023-02-21T00:40:41;26.08;;;16.23;;
60076;SDS011;45950;45.208;20.374;2023-02-21T00:43:28;23.48;;;14.18;;
60076;SDS011;45950;45.208;20.374;2023-02-21T00:46:16;20.60;;;13.43;;
60076;SDS011;45950;45.208;20.374;2023-02-21T00:49:00;19.58;;;12.15;;
60076;SDS011;45950;45.208;20.374;2023-02-21T00:51:44;18.73;;;12.70;;
60076;SDS011;45950;45.208;20.374;2023-02-21T00:57:01;20.88;;;12.52;;
60076;SDS011;45950;45.208;20.374;2023-02-21T00:59:47;20.63;;;13.18;;
60076;SDS011;45950;45.208;20.374;2023-02-21T01:02:31;22.38;;;13.88;;
60076;SDS011;45950;45.208;20.374;2023-02-21T01:05:15;23.00;;;12.98;;
60076;SDS011;45950;45.208;20.374;2023-02-21T01:07:58;21.98;;;13.90;;
60076;SDS011;45950;45.208;20.374;2023-02-21T01:26:11;31.20;;;18.50;;
60076;SDS011;45950;45.208;20.374;2023-02-21T01:28:59;28.42;;;18.40;;
60076;SDS011;45950;45.208;20.374;2023-02-21T01:31:47;29.58;;;18.70;;
60076;SDS011;45950;45.208;20.374;2023-02-21T01:34:32;32.33;;;19.67;;
60076;SDS011;45950;45.208;20.374;2023-02-21T01:37:16;29.38;;;18.95;;
60076;SDS011;45950;45.208;20.374;2023-02-21T01:42:36;29.77;;;18.33;;
60076;SDS011;45950;45.208;20.374;2023-02-21T01:45:38;30.33;;;18.92;;
60076;SDS011;45950;45.208;20.374;2023-02-21T01:48:23;33.33;;;18.85;;
60076;SDS011;45950;45.208;20.374;2023-02-21T01:53:44;29.25;;;18.75;;
60076;SDS011;45950;45.208;20.374;2023-02-21T01:56:28;33.85;;;19.92;;
60076;SDS011;45950;45.208;20.374;2023-02-21T01:59:15;27.92;;;18.23;;
60076;SDS011;45950;45.208;20.374;2023-02-21T02:02:02;26.73;;;16.52;;
60076;SDS011;45950;45.208;20.374;2023-02-21T02:04:47;31.30;;;18.55;;
60076;SDS011;45950;45.208;20.374;2023-02-21T02:07:32;30.25;;;18.90;;
60076;SDS011;45950;45.208;20.374;2023-02-21T02:10:17;34.10;;;19.10;;
60076;SDS011;45950;45.208;20.374;2023-02-21T02:36:24;34.70;;;21.10;;
60076;SDS011;45950;45.208;20.374;2023-02-21T02:41:31;33.45;;;18.45;;
60076;SDS011;45950;45.208;20.374;2023-02-21T02:44:01;29.98;;;19.58;;
60076;SDS011;45950;45.208;20.374;2023-02-21T03:08:51;25.40;;;15.88;;
60076;SDS011;45950;45.208;20.374;2023-02-21T03:11:20;23.27;;;14.25;;
60076;SDS011;45950;45.208;20.374;2023-02-21T03:13:49;32.67;;;18.75;;
60076;SDS011;45950;45.208;20.374;2023-02-21T03:29:15;26.85;;;16.30;;
60076;SDS011;45950;45.208;20.374;2023-02-21T03:49:47;23.42;;;15.23;;
60076;SDS011;45950;45.208;20.374;2023-02-21T03:52:14;26.27;;;17.85;;
60076;SDS011;45950;45.208;20.374;2023-02-21T03:54:40;21.27;;;14.70;;
60076;SDS011;45950;45.208;20.374;2023-02-21T03:57:20;25.70;;;13.30;;
60076;SDS011;45950;45.208;20.374;2023-02-21T04:04:53;26.10;;;14.13;;
60076;SDS011;45950;45.208;20.374;2023-02-21T04:07:19;23.15;;;13.82;;
60076;SDS011;45950;45.208;20.374;2023-02-21T04:09:46;22.20;;;14.80;;
60076;SDS011;45950;45.208;20.374;2023-02-21T04:12:13;29.73;;;18.55;;
60076;SDS011;45950;45.208;20.374;2023-02-21T04:14:39;29.48;;;17.73;;
60076;SDS011;45950;45.208;20.374;2023-02-21T04:17:06;27.95;;;16.95;;
60076;SDS011;45950;45.208;20.374;2023-02-21T04:19:32;31.75;;;17.38;;
60076;SDS011;45950;45.208;20.374;2023-02-21T04:24:35;41.75;;;23.52;;
60076;SDS011;45950;45.208;20.374;2023-02-21T04:34:43;34.10;;;20.90;;
60076;SDS011;45950;45.208;20.374;2023-02-21T05:00:24;28.98;;;18.58;;
60076;SDS011;45950;45.208;20.374;2023-02-21T05:02:51;33.05;;;19.75;;
60076;SDS011;45950;45.208;20.374;2023-02-21T05:05:18;34.70;;;18.85;;
60076;SDS011;45950;45.208;20.374;2023-02-21T05:38:44;98.60;;;49.60;;
60076;SDS011;45950;45.208;20.374;2023-02-21T05:41:10;33.53;;;17.98;;
60076;SDS011;45950;45.208;20.374;2023-02-21T06:04:19;31.15;;;19.15;;
60076;SDS011;45950;45.208;20.374;2023-02-21T06:06:45;45.05;;;26.33;;
60076;SDS011;45950;45.208;20.374;2023-02-21T06:11:59;67.50;;;34.20;;
60076;SDS011;45950;45.208;20.374;2023-02-21T06:14:26;82.18;;;40.83;;
60076;SDS011;45950;45.208;20.374;2023-02-21T06:16:52;81.53;;;42.40;;
60076;SDS011;45950;45.208;20.374;2023-02-21T06:19:20;71.15;;;36.40;;
60076;SDS011;45950;45.208;20.374;2023-02-21T06:21:59;51.30;;;27.55;;
60076;SDS011;45950;45.208;20.374;2023-02-21T06:24:50;28.50;;;17.65;;
60076;SDS011;45950;45.208;20.374;2023-02-21T06:27:18;20.55;;;12.82;;
60076;SDS011;45950;45.208;20.374;2023-02-21T06:29:45;30.08;;;18.52;;
60076;SDS011;45950;45.208;20.374;2023-02-21T06:32:13;48.40;;;30.75;;
60076;SDS011;45950;45.208;20.374;2023-02-21T06:34:43;58.08;;;31.55;;
60076;SDS011;45950;45.208;20.374;2023-02-21T06:37:13;61.47;;;34.03;;
60076;SDS011;45950;45.208;20.374;2023-02-21T06:39:42;60.33;;;35.13;;
60076;SDS011;45950;45.208;20.374;2023-02-21T06:42:11;80.28;;;42.65;;
60076;SDS011;45950;45.208;20.374;2023-02-21T06:44:38;90.15;;;44.78;;
60076;SDS011;45950;45.208;20.374;2023-02-21T06:47:07;140.73;;;61.95;;
60076;SDS011;45950;45.208;20.374;2023-02-21T06:49:34;80.65;;;38.17;;
60076;SDS011;45950;45.208;20.374;2023-02-21T06:52:03;60.85;;;33.05;;
60076;SDS011;45950;45.208;20.374;2023-02-21T06:54:29;26.58;;;16.15;;
60076;SDS011;45950;45.208;20.374;2023-02-21T06:56:56;17.10;;;11.23;;
60076;SDS011;45950;45.208;20.374;2023-02-21T06:59:23;17.55;;;11.32;;
60076;SDS011;45950;45.208;20.374;2023-02-21T07:01:49;22.95;;;16.58;;
60076;SDS011;45950;45.208;20.374;2023-02-21T07:04:16;23.17;;;14.13;;
60076;SDS011;45950;45.208;20.374;2023-02-21T07:06:42;21.38;;;13.80;;
60076;SDS011;45950;45.208;20.374;2023-02-21T07:09:10;19.88;;;12.85;;
60076;SDS011;45950;45.208;20.374;2023-02-21T07:11:39;45.38;;;23.67;;
60076;SDS011;45950;45.208;20.374;2023-02-21T07:14:05;32.50;;;20.55;;
60076;SDS011;45950;45.208;20.374;2023-02-21T07:16:32;17.13;;;10.93;;
60076;SDS011;45950;45.208;20.374;2023-02-21T07:18:59;18.88;;;10.50;;
60076;SDS011;45950;45.208;20.374;2023-02-21T07:21:25;17.88;;;11.40;;
60076;SDS011;45950;45.208;20.374;2023-02-21T07:23:52;15.63;;;11.60;;
60076;SDS011;45950;45.208;20.374;2023-02-21T07:26:20;15.20;;;10.27;;
60076;SDS011;45950;45.208;20.374;2023-02-21T07:28:47;14.88;;;9.75;;
60076;SDS011;45950;45.208;20.374;2023-02-21T07:31:13;17.92;;;12.02;;
60076;SDS011;45950;45.208;20.374;2023-02-21T07:33:41;18.25;;;11.60;;
60076;SDS011;45950;45.208;20.374;2023-02-21T07:36:07;16.00;;;10.82;;
60076;SDS011;45950;45.208;20.374;2023-02-21T07:38:34;16.02;;;11.23;;
60076;SDS011;45950;45.208;20.374;2023-02-21T07:41:01;18.33;;;12.48;;
60076;SDS011;45950;45.208;20.374;2023-02-21T07:43:30;17.38;;;11.82;;
60076;SDS011;45950;45.208;20.374;2023-02-21T07:45:57;16.05;;;11.07;;
60076;SDS011;45950;45.208;20.374;2023-02-21T07:48:23;17.45;;;11.23;;
60076;SDS011;45950;45.208;20.374;2023-02-21T07:50:50;15.43;;;9.48;;
60076;SDS011;45950;45.208;20.374;2023-02-21T07:53:17;17.08;;;11.15;;
60076;SDS011;45950;45.208;20.374;2023-02-21T07:55:43;14.77;;;10.13;;
60076;SDS011;45950;45.208;20.374;2023-02-21T07:58:10;15.82;;;9.35;;
60076;SDS011;45950;45.208;20.374;2023-02-21T08:00:37;14.23;;;8.90;;
60076;SDS011;45950;45.208;20.374;2023-02-21T08:03:04;12.25;;;7.78;;
60076;SDS011;45950;45.208;20.374;2023-02-21T08:05:30;9.05;;;6.55;;
60076;SDS011;45950;45.208;20.374;2023-02-21T08:07:57;10.52;;;7.53;;
60076;SDS011;45950;45.208;20.374;2023-02-21T08:10:24;10.43;;;7.22;;
60076;SDS011;45950;45.208;20.374;2023-02-21T08:12:51;10.07;;;7.30;;
60076;SDS011;45950;45.208;20.374;2023-02-21T08:15:17;9.02;;;6.30;;
60076;SDS011;45950;45.208;20.374;2023-02-21T08:18:03;9.82;;;6.32;;
60076;SDS011;45950;45.208;20.374;2023-02-21T08:20:29;11.85;;;7.35;;
60076;SDS011;45950;45.208;20.374;2023-02-21T08:22:56;10.60;;;6.95;;
60076;SDS011;45950;45.208;20.374;2023-02-21T08:25:22;9.23;;;7.03;;
60076;SDS011;45950;45.208;20.374;2023-02-21T08:27:49;9.93;;;6.68;;
60076;SDS011;45950;45.208;20.374;2023-02-21T08:30:19;12.93;;;7.22;;
60076;SDS011;45950;45.208;20.374;2023-02-21T08:32:45;9.18;;;6.25;;
60076;SDS011;45950;45.208;20.374;2023-02-21T08:35:14;9.65;;;6.43;;
60076;SDS011;45950;45.208;20.374;2023-02-21T08:37:42;8.15;;;6.03;;
60076;SDS011;45950;45.208;20.374;2023-02-21T08:40:09;12.98;;;7.53;;
60076;SDS011;45950;45.208;20.374;2023-02-21T08:42:36;13.10;;;7.70;;
60076;SDS011;45950;45.208;20.374;2023-02-21T08:45:02;12.82;;;9.05;;
60076;SDS011;45950;45.208;20.374;2023-02-21T08:47:29;10.88;;;7.20;;
60076;SDS011;45950;45.208;20.374;2023-02-21T08:49:55;10.18;;;7.63;;
60076;SDS011;45950;45.208;20.374;2023-02-21T08:52:23;9.63;;;6.50;;
60076;SDS011;45950;45.208;20.374;2023-02-21T08:54:49;11.35;;;7.07;;
60076;SDS011;45950;45.208;20.374;2023-02-21T08:57:16;14.35;;;9.65;;
60076;SDS011;45950;45.208;20.374;2023-02-21T08:59:43;10.48;;;7.45;;
60076;SDS011;45950;45.208;20.374;2023-02-21T09:02:13;14.70;;;9.73;;
60076;SDS011;45950;45.208;20.374;2023-02-21T09:04:46;10.60;;;7.20;;
60076;SDS011;45950;45.208;20.374;2023-02-21T09:07:13;11.50;;;7.85;;
60076;SDS011;45950;45.208;20.374;2023-02-21T09:09:41;13.30;;;8.95;;
60076;SDS011;45950;45.208;20.374;2023-02-21T09:12:08;12.15;;;8.50;;
60076;SDS011;45950;45.208;20.374;2023-02-21T09:14:37;10.80;;;7.00;;
60076;SDS011;45950;45.208;20.374;2023-02-21T09:17:04;8.93;;;7.28;;
60076;SDS011;45950;45.208;20.374;2023-02-21T09:19:31;39.75;;;17.50;;
60076;SDS011;45950;45.208;20.374;2023-02-21T09:21:57;13.05;;;9.32;;
60076;SDS011;45950;45.208;20.374;2023-02-21T09:24:24;13.45;;;9.27;;
60076;SDS011;45950;45.208;20.374;2023-02-21T09:26:53;16.55;;;10.32;;
60076;SDS011;45950;45.208;20.374;2023-02-21T09:29:19;9.55;;;7.78;;
60076;SDS011;45950;45.208;20.374;2023-02-21T09:31:46;11.23;;;8.48;;
60076;SDS011;45950;45.208;20.374;2023-02-21T09:34:13;15.80;;;10.85;;
60076;SDS011;45950;45.208;20.374;2023-02-21T09:36:39;10.80;;;7.68;;
60076;SDS011;45950;45.208;20.374;2023-02-21T09:39:06;13.63;;;8.95;;
60076;SDS011;45950;45.208;20.374;2023-02-21T09:41:33;18.13;;;11.57;;
60076;SDS011;45950;45.208;20.374;2023-02-21T09:44:03;19.83;;;12.35;;
60076;SDS011;45950;45.208;20.374;2023-02-21T09:46:31;17.45;;;11.15;;
60076;SDS011;45950;45.208;20.374;2023-02-21T09:48:59;17.35;;;11.20;;
60076;SDS011;45950;45.208;20.374;2023-02-21T09:51:29;10.68;;;7.53;;
60076;SDS011;45950;45.208;20.374;2023-02-21T09:53:56;11.60;;;6.90;;
60076;SDS011;45950;45.208;20.374;2023-02-21T09:56:25;19.85;;;13.20;;
60076;SDS011;45950;45.208;20.374;2023-02-21T09:58:53;24.95;;;14.45;;
60076;SDS011;45950;45.208;20.374;2023-02-21T10:01:24;15.27;;;9.85;;
60076;SDS011;45950;45.208;20.374;2023-02-21T10:03:53;16.75;;;9.90;;
60076;SDS011;45950;45.208;20.374;2023-02-21T10:06:27;20.33;;;12.52;;
60076;SDS011;45950;45.208;20.374;2023-02-21T10:08:58;21.75;;;13.48;;
60076;SDS011;45950;45.208;20.374;2023-02-21T10:11:29;20.83;;;13.13;;
60076;SDS011;45950;45.208;20.374;2023-02-21T10:14:01;17.30;;;10.48;;
60076;SDS011;45950;45.208;20.374;2023-02-21T10:16:34;17.98;;;11.02;;
60076;SDS011;45950;45.208;20.374;2023-02-21T10:19:06;14.80;;;10.45;;
60076;SDS011;45950;45.208;20.374;2023-02-21T10:21:34;13.45;;;9.00;;
60076;SDS011;45950;45.208;20.374;2023-02-21T10:24:08;13.05;;;8.68;;
60076;SDS011;45950;45.208;20.374;2023-02-21T10:26:36;11.70;;;8.40;;
60076;SDS011;45950;45.208;20.374;2023-02-21T10:29:06;14.27;;;9.35;;
60076;SDS011;45950;45.208;20.374;2023-02-21T10:31:38;18.27;;;12.55;;
60076;SDS011;45950;45.208;20.374;2023-02-21T10:34:08;12.77;;;9.50;;
60076;SDS011;45950;45.208;20.374;2023-02-21T10:36:41;9.75;;;6.70;;
60076;SDS011;45950;45.208;20.374;2023-02-21T10:39:09;8.25;;;6.75;;
60076;SDS011;45950;45.208;20.374;2023-02-21T10:41:38;14.68;;;9.02;;
60076;SDS011;45950;45.208;20.374;2023-02-21T10:44:06;15.55;;;10.10;;
60076;SDS011;45950;45.208;20.374;2023-02-21T10:46:36;24.05;;;13.77;;
60076;SDS011;45950;45.208;20.374;2023-02-21T10:49:19;18.85;;;11.95;;
60076;SDS011;45950;45.208;20.374;2023-02-21T10:51:46;28.08;;;17.85;;
60076;SDS011;45950;45.208;20.374;2023-02-21T10:54:16;22.77;;;14.80;;
60076;SDS011;45950;45.208;20.374;2023-02-21T10:56:44;15.27;;;10.48;;
60076;SDS011;45950;45.208;20.374;2023-02-21T10:59:10;16.45;;;11.77;;
60076;SDS011;45950;45.208;20.374;2023-02-21T11:01:44;35.17;;;20.63;;
60076;SDS011;45950;45.208;20.374;2023-02-21T11:04:23;22.38;;;13.23;;
60076;SDS011;45950;45.208;20.374;2023-02-21T11:06:51;19.27;;;10.90;;
60076;SDS011;45950;45.208;20.374;2023-02-21T11:09:27;28.05;;;17.17;;
60076;SDS011;45950;45.208;20.374;2023-02-21T11:11:58;37.15;;;20.65;;
60076;SDS011;45950;45.208;20.374;2023-02-21T11:14:25;21.23;;;13.50;;
60076;SDS011;45950;45.208;20.374;2023-02-21T11:17:03;52.65;;;29.13;;
60076;SDS011;45950;45.208;20.374;2023-02-21T11:19:35;35.33;;;19.13;;
60076;SDS011;45950;45.208;20.374;2023-02-21T11:22:06;18.73;;;12.50;;
60076;SDS011;45950;45.208;20.374;2023-02-21T11:24:33;29.92;;;16.20;;
60076;SDS011;45950;45.208;20.374;2023-02-21T11:27:00;14.75;;;8.88;;
60076;SDS011;45950;45.208;20.374;2023-02-21T11:29:26;22.83;;;12.00;;
60076;SDS011;45950;45.208;20.374;2023-02-21T11:31:53;17.23;;;10.00;;
60076;SDS011;45950;45.208;20.374;2023-02-21T11:34:20;18.13;;;9.98;;
60076;SDS011;45950;45.208;20.374;2023-02-21T11:36:48;13.63;;;9.52;;
60076;SDS011;45950;45.208;20.374;2023-02-21T11:39:15;10.07;;;7.78;;
60076;SDS011;45950;45.208;20.374;2023-02-21T11:41:51;8.65;;;6.55;;
60076;SDS011;45950;45.208;20.374;2023-02-21T11:44:22;9.15;;;6.93;;
60076;SDS011;45950;45.208;20.374;2023-02-21T11:46:49;8.52;;;6.00;;
60076;SDS011;45950;45.208;20.374;2023-02-21T11:52:05;10.18;;;6.45;;
60076;SDS011;45950;45.208;20.374;2023-02-21T11:54:33;7.72;;;6.05;;
60076;SDS011;45950;45.208;20.374;2023-02-21T11:57:01;10.10;;;6.50;;
60076;SDS011;45950;45.208;20.374;2023-02-21T11:59:32;8.43;;;6.15;;
60076;SDS011;45950;45.208;20.374;2023-02-21T12:02:04;7.68;;;5.75;;
60076;SDS011;45950;45.208;20.374;2023-02-21T12:04:46;10.65;;;7.00;;
60076;SDS011;45950;45.208;20.374;2023-02-21T12:07:19;13.52;;;8.57;;
60076;SDS011;45950;45.208;20.374;2023-02-21T12:12:23;19.27;;;11.68;;
60076;SDS011;45950;45.208;20.374;2023-02-21T12:14:54;16.35;;;9.15;;
60076;SDS011;45950;45.208;20.374;2023-02-21T12:17:28;18.13;;;11.88;;
60076;SDS011;45950;45.208;20.374;2023-02-21T12:20:15;14.60;;;9.73;;
60076;SDS011;45950;45.208;20.374;2023-02-21T12:22:54;16.42;;;11.48;;
60076;SDS011;45950;45.208;20.374;2023-02-21T12:25:24;27.48;;;20.25;;
60076;SDS011;45950;45.208;20.374;2023-02-21T12:27:53;20.50;;;13.25;;
60076;SDS011;45950;45.208;20.374;2023-02-21T12:30:32;14.52;;;9.60;;
60076;SDS011;45950;45.208;20.374;2023-02-21T12:33:10;25.15;;;15.98;;
60076;SDS011;45950;45.208;20.374;2023-02-21T12:35:52;21.70;;;15.25;;
60076;SDS011;45950;45.208;20.374;2023-02-21T12:38:29;21.17;;;14.80;;
60076;SDS011;45950;45.208;20.374;2023-02-21T12:43:51;23.38;;;15.85;;
60076;SDS011;45950;45.208;20.374;2023-02-21T12:46:21;12.77;;;9.57;;
60076;SDS011;45950;45.208;20.374;2023-02-21T12:48:57;10.23;;;7.47;;
60076;SDS011;45950;45.208;20.374;2023-02-21T12:51:27;10.82;;;7.55;;
60076;SDS011;45950;45.208;20.374;2023-02-21T12:53:57;12.65;;;7.88;;
60076;SDS011;45950;45.208;20.374;2023-02-21T12:56:38;11.93;;;7.80;;
60076;SDS011;45950;45.208;20.374;2023-02-21T12:59:10;9.80;;;7.10;;
60076;SDS011;45950;45.208;20.374;2023-02-21T13:01:39;13.27;;;9.45;;
60076;SDS011;45950;45.208;20.374;2023-02-21T13:04:15;8.65;;;6.47;;
60076;SDS011;45950;45.208;20.374;2023-02-21T13:06:45;12.30;;;9.02;;
60076;SDS011;45950;45.208;20.374;2023-02-21T13:09:16;11.93;;;8.55;;
60076;SDS011;45950;45.208;20.374;2023-02-21T13:11:48;13.32;;;9.68;;
60076;SDS011;45950;45.208;20.374;2023-02-21T13:16:53;7.40;;;5.38;;
60076;SDS011;45950;45.208;20.374;2023-02-21T13:19:20;8.82;;;6.65;;
60076;SDS011;45950;45.208;20.374;2023-02-21T13:22:02;15.30;;;8.90;;
60076;SDS011;45950;45.208;20.374;2023-02-21T13:24:51;14.02;;;8.65;;
60076;SDS011;45950;45.208;20.374;2023-02-21T13:27:29;42.30;;;22.20;;
60076;SDS011;45950;45.208;20.374;2023-02-21T13:29:58;63.70;;;31.42;;
60076;SDS011;45950;45.208;20.374;2023-02-21T13:32:27;25.70;;;14.20;;
60076;SDS011;45950;45.208;20.374;2023-02-21T13:34:54;49.50;;;29.35;;
60076;SDS011;45950;45.208;20.374;2023-02-21T13:37:21;24.05;;;14.63;;
60076;SDS011;45950;45.208;20.374;2023-02-21T13:39:51;9.80;;;7.50;;
60076;SDS011;45950;45.208;20.374;2023-02-21T13:42:18;8.18;;;6.25;;
60076;SDS011;45950;45.208;20.374;2023-02-21T13:44:46;7.63;;;5.30;;
60076;SDS011;45950;45.208;20.374;2023-02-21T13:47:14;7.60;;;4.93;;
60076;SDS011;45950;45.208;20.374;2023-02-21T13:49:42;8.18;;;5.25;;
60076;SDS011;45950;45.208;20.374;2023-02-21T14:00:51;7.88;;;4.47;;
60076;SDS011;45950;45.208;20.374;2023-02-21T14:06:27;8.20;;;4.90;;
60076;SDS011;45950;45.208;20.374;2023-02-21T14:08:54;5.93;;;4.45;;
60076;SDS011;45950;45.208;20.374;2023-02-21T14:14:23;6.65;;;4.70;;
60076;SDS011;45950;45.208;20.374;2023-02-21T14:16:52;8.68;;;5.32;;
60076;SDS011;45950;45.208;20.374;2023-02-21T14:19:23;5.32;;;4.30;;
60076;SDS011;45950;45.208;20.374;2023-02-21T14:21:55;6.10;;;4.57;;
60076;SDS011;45950;45.208;20.374;2023-02-21T14:24:23;8.20;;;4.85;;
60076;SDS011;45950;45.208;20.374;2023-02-21T14:26:52;8.32;;;5.43;;
60076;SDS011;45950;45.208;20.374;2023-02-21T14:32:14;8.15;;;5.03;;
60076;SDS011;45950;45.208;20.374;2023-02-21T14:34:48;9.23;;;5.07;;
60076;SDS011;45950;45.208;20.374;2023-02-21T14:37:18;11.38;;;4.28;;
60076;SDS011;45950;45.208;20.374;2023-02-21T14:39:48;5.40;;;4.32;;
60076;SDS011;45950;45.208;20.374;2023-02-21T14:45:06;6.43;;;4.50;;
60076;SDS011;45950;45.208;20.374;2023-02-21T14:47:43;6.28;;;4.68;;
60076;SDS011;45950;45.208;20.374;2023-02-21T14:55:54;8.65;;;4.72;;
60076;SDS011;45950;45.208;20.374;2023-02-21T14:58:38;8.98;;;4.50;;
60076;SDS011;45950;45.208;20.374;2023-02-21T15:01:09;6.43;;;4.30;;
60076;SDS011;45950;45.208;20.374;2023-02-21T15:03:43;7.30;;;4.85;;
60076;SDS011;45950;45.208;20.374;2023-02-21T15:06:10;8.80;;;4.90;;
60076;SDS011;45950;45.208;20.374;2023-02-21T15:08:43;7.95;;;5.53;;
60076;SDS011;45950;45.208;20.374;2023-02-21T15:14:13;18.48;;;10.68;;
60076;SDS011;45950;45.208;20.374;2023-02-21T15:16:46;11.90;;;7.30;;
60076;SDS011;45950;45.208;20.374;2023-02-21T15:19:20;21.00;;;13.20;;
60076;SDS011;45950;45.208;20.374;2023-02-21T15:24:38;15.68;;;10.05;;
60076;SDS011;45950;45.208;20.374;2023-02-21T15:27:08;21.27;;;12.75;;
60076;SDS011;45950;45.208;20.374;2023-02-21T15:29:35;25.27;;;13.88;;
60076;SDS011;45950;45.208;20.374;2023-02-21T15:32:01;13.60;;;9.25;;
60076;SDS011;45950;45.208;20.374;2023-02-21T15:34:32;19.23;;;11.77;;
60076;SDS011;45950;45.208;20.374;2023-02-21T15:36:59;46.10;;;30.25;;
60076;SDS011;45950;45.208;20.374;2023-02-21T15:39:28;26.73;;;16.40;;
60076;SDS011;45950;45.208;20.374;2023-02-21T15:41:56;16.35;;;10.48;;
60076;SDS011;45950;45.208;20.374;2023-02-21T15:44:25;15.60;;;10.35;;
60076;SDS011;45950;45.208;20.374;2023-02-21T15:46:53;24.92;;;17.40;;
60076;SDS011;45950;45.208;20.374;2023-02-21T15:49:21;35.22;;;25.67;;
60076;SDS011;45950;45.208;20.374;2023-02-21T15:51:51;42.60;;;27.60;;
60076;SDS011;45950;45.208;20.374;2023-02-21T15:57:19;18.42;;;10.20;;
60076;SDS011;45950;45.208;20.374;2023-02-21T15:59:47;21.35;;;10.50;;
60076;SDS011;45950;45.208;20.374;2023-02-21T16:02:15;14.13;;;8.85;;
60076;SDS011;45950;45.208;20.374;2023-02-21T16:04:42;15.73;;;9.95;;
60076;SDS011;45950;45.208;20.374;2023-02-21T16:07:15;13.73;;;9.77;;
60076;SDS011;45950;45.208;20.374;2023-02-21T16:09:44;15.55;;;11.57;;
60076;SDS011;45950;45.208;20.374;2023-02-21T16:12:17;20.55;;;13.18;;
60076;SDS011;45950;45.208;20.374;2023-02-21T16:14:47;15.70;;;9.20;;
60076;SDS011;45950;45.208;20.374;2023-02-21T16:17:21;15.63;;;10.30;;
60076;SDS011;45950;45.208;20.374;2023-02-21T16:19:49;18.38;;;10.85;;
60076;SDS011;45950;45.208;20.374;2023-02-21T16:27:51;18.30;;;9.63;;
60076;SDS011;45950;45.208;20.374;2023-02-21T16:30:19;16.98;;;12.52;;
60076;SDS011;45950;45.208;20.374;2023-02-21T16:32:57;21.67;;;14.43;;
60076;SDS011;45950;45.208;20.374;2023-02-21T16:35:25;24.17;;;16.00;;
60076;SDS011;45950;45.208;20.374;2023-02-21T16:37:52;20.63;;;13.20;;
60076;SDS011;45950;45.208;20.374;2023-02-21T16:43:06;15.30;;;10.35;;
60076;SDS011;45950;45.208;20.374;2023-02-21T16:45:34;19.23;;;11.43;;
60076;SDS011;45950;45.208;20.374;2023-02-21T16:48:01;19.08;;;10.98;;
60076;SDS011;45950;45.208;20.374;2023-02-21T16:50:30;19.10;;;12.20;;
60076;SDS011;45950;45.208;20.374;2023-02-21T16:52:56;17.13;;;11.32;;
60076;SDS011;45950;45.208;20.374;2023-02-21T16:55:23;16.02;;;10.27;;
60076;SDS011;45950;45.208;20.374;2023-02-21T16:57:50;19.30;;;12.32;;
60076;SDS011;45950;45.208;20.374;2023-02-21T17:00:19;17.27;;;11.25;;
60076;SDS011;45950;45.208;20.374;2023-02-21T17:02:46;23.60;;;16.00;;
60076;SDS011;45950;45.208;20.374;2023-02-21T17:05:12;27.98;;;18.80;;
60076;SDS011;45950;45.208;20.374;2023-02-21T17:07:39;27.70;;;20.05;;
60076;SDS011;45950;45.208;20.374;2023-02-21T17:10:06;28.08;;;19.33;;
60076;SDS011;45950;45.208;20.374;2023-02-21T17:12:32;25.98;;;17.70;;
60076;SDS011;45950;45.208;20.374;2023-02-21T17:14:59;21.75;;;13.68;;
60076;SDS011;45950;45.208;20.374;2023-02-21T17:17:26;17.23;;;11.38;;
60076;SDS011;45950;45.208;20.374;2023-02-21T17:19:53;17.15;;;10.98;;
60076;SDS011;45950;45.208;20.374;2023-02-21T17:22:19;14.38;;;10.07;;
60076;SDS011;45950;45.208;20.374;2023-02-21T17:24:46;12.90;;;9.18;;
60076;SDS011;45950;45.208;20.374;2023-02-21T17:30:04;13.23;;;10.30;;
60076;SDS011;45950;45.208;20.374;2023-02-21T17:32:32;17.00;;;11.40;;
60076;SDS011;45950;45.208;20.374;2023-02-21T17:34:59;21.17;;;16.10;;
60076;SDS011;45950;45.208;20.374;2023-02-21T17:37:25;15.52;;;12.00;;
60076;SDS011;45950;45.208;20.374;2023-02-21T17:39:52;17.92;;;11.60;;
60076;SDS011;45950;45.208;20.374;2023-02-21T17:42:18;15.75;;;11.32;;
60076;SDS011;45950;45.208;20.374;2023-02-21T17:44:45;15.20;;;9.90;;
60076;SDS011;45950;45.208;20.374;2023-02-21T17:47:12;13.88;;;8.45;;
60076;SDS011;45950;45.208;20.374;2023-02-21T17:49:40;13.25;;;8.65;;
60076;SDS011;45950;45.208;20.374;2023-02-21T17:52:06;12.25;;;8.60;;
60076;SDS011;45950;45.208;20.374;2023-02-21T17:54:49;12.35;;;8.32;;
60076;SDS011;45950;45.208;20.374;2023-02-21T17:57:16;12.07;;;9.05;;
60076;SDS011;45950;45.208;20.374;2023-02-21T17:59:42;15.63;;;10.18;;
60076;SDS011;45950;45.208;20.374;2023-02-21T18:02:09;17.95;;;13.73;;
60076;SDS011;45950;45.208;20.374;2023-02-21T18:04:37;32.03;;;23.45;;
60076;SDS011;45950;45.208;20.374;2023-02-21T18:07:05;25.95;;;18.42;;
60076;SDS011;45950;45.208;20.374;2023-02-21T18:09:31;22.00;;;16.65;;
60076;SDS011;45950;45.208;20.374;2023-02-21T18:11:58;17.02;;;12.60;;
60076;SDS011;45950;45.208;20.374;2023-02-21T18:14:25;16.48;;;10.93;;
60076;SDS011;45950;45.208;20.374;2023-02-21T18:16:54;14.57;;;10.88;;
60076;SDS011;45950;45.208;20.374;2023-02-21T18:19:21;15.27;;;10.00;;
60076;SDS011;45950;45.208;20.374;2023-02-21T18:21:48;17.02;;;11.95;;
60076;SDS011;45950;45.208;20.374;2023-02-21T18:24:16;17.35;;;13.10;;
60076;SDS011;45950;45.208;20.374;2023-02-21T18:26:43;16.10;;;10.98;;
60076;SDS011;45950;45.208;20.374;2023-02-21T18:29:10;14.98;;;10.25;;
60076;SDS011;45950;45.208;20.374;2023-02-21T18:31:37;16.45;;;12.20;;
60076;SDS011;45950;45.208;20.374;2023-02-21T18:34:03;20.27;;;15.02;;
60076;SDS011;45950;45.208;20.374;2023-02-21T18:36:31;15.13;;;11.90;;
60076;SDS011;45950;45.208;20.374;2023-02-21T18:38:58;18.88;;;11.75;;
60076;SDS011;45950;45.208;20.374;2023-02-21T18:41:26;12.50;;;8.10;;
60076;SDS011;45950;45.208;20.374;2023-02-21T18:43:52;13.95;;;10.90;;
60076;SDS011;45950;45.208;20.374;2023-02-21T18:46:19;23.70;;;14.77;;
60076;SDS011;45950;45.208;20.374;2023-02-21T18:48:46;13.88;;;9.32;;
60076;SDS011;45950;45.208;20.374;2023-02-21T18:51:13;17.00;;;11.57;;